Platitera Tonouranon — SX7180 — position and weather

sailwx.info

Track history (hours):
 
Tides and Currents Weather Stations Pressure Air Temp Water Temp Dewpoint Dewpoint Depression Visibility Wind Speed Wind Dir Waves Ship Positions

Platitera Tonouranon

Last reported at 2016-Feb-10 19:34 UTC. Time now 2016-Feb-11 04:21 UTC.
Position N 37°56' E 023°41'.

Length 55 m; draft 3.8 m.

Type: Ship (hazmat cat A). MMSI: 237038200.

Date/timePositionNaut miles runAvg speedWind from/ knotsBaromVisibWave heightAir tempDewpointWater temp
2016-Feb-10 19:34N 37°56' E 023°41'0 0.0
2016-Feb-10 18:34N 37°56' E 023°41'0 0.0
2016-Feb-10 16:33N 37°56' E 023°41'1 1.2
2016-Feb-10 15:33N 37°55' E 023°40'1111.1
2016-Feb-10 14:33N 37°48' E 023°30'4 3.6
2016-Feb-10 13:18N 37°45' E 023°26'4 2.0
2016-Feb-10 11:33N 37°41' E 023°25'1111.1
2016-Feb-10 10:33N 37°30' E 023°27'0 0.1
2016-Feb-10 09:21N 37°30' E 023°27'2 2.6
2016-Feb-10 08:32N 37°32' E 023°25'1111.6
2016-Feb-10 07:33N 37°42' E 023°32'1211.7
2016-Feb-10 06:33N 37°52' E 023°38'4 4.4
2016-Feb-10 05:33N 37°56' E 023°41'0 0.0
2016-Feb-10 04:33N 37°56' E 023°41'0 0.0
2016-Feb-09 19:33N 37°56' E 023°41'0 0.0
2016-Feb-09 18:34N 37°56' E 023°41'0 0.0
2016-Feb-09 17:34N 37°56' E 023°41'10 9.9
2016-Feb-09 16:34N 37°49' E 023°32'7 2.8
2016-Feb-09 14:04N 37°45' E 023°26'611.5
2016-Feb-09 13:33N 37°39' E 023°25'9 7.0
2016-Feb-09 12:16N 37°30' E 023°27'3 4.4
2016-Feb-09 11:33N 37°28' E 023°30'13 3.1
2016-Feb-09 07:27N 37°40' E 023°37'1111.8
2016-Feb-09 06:33N 37°50' E 023°39'6 6.0
2016-Feb-09 05:33N 37°56' E 023°41'0 0.0
2016-Feb-09 04:33N 37°56' E 023°41'0 0.0
2016-Feb-08 19:23N 37°56' E 023°41'0 0.0
2016-Feb-08 18:33N 37°56' E 023°41'0 0.0
2016-Feb-08 17:33N 37°56' E 023°41'1110.6
2016-Feb-08 16:33N 37°49' E 023°31'6 2.5
2016-Feb-08 14:07N 37°45' E 023°26'611.5
2016-Feb-08 13:33N 37°38' E 023°25'11 1.9
2016-Feb-08 07:33N 37°41' E 023°39'1211.8
2016-Feb-08 06:33N 37°53' E 023°40'3 3.0
2016-Feb-08 05:33N 37°56' E 023°41'0 0.0
2016-Feb-08 04:33N 37°56' E 023°41'0 0.0
2016-Feb-07 19:33N 37°56' E 023°41'0 0.0
2016-Feb-07 18:33N 37°56' E 023°41'0 0.3
2016-Feb-07 17:33N 37°56' E 023°41'1211.7
2016-Feb-07 16:33N 37°49' E 023°29'5 2.2
2016-Feb-07 14:14N 37°45' E 023°26'811.5
2016-Feb-07 13:33N 37°37' E 023°26'7 5.4
2016-Feb-07 12:14N 37°30' E 023°27'7 7.5
2016-Feb-07 11:16N 37°23' E 023°29'20 5.2
2016-Feb-07 07:31N 37°41' E 023°39'1111.9
2016-Feb-07 06:33N 37°52' E 023°40'4 3.9
2016-Feb-07 05:33N 37°56' E 023°41'2 0.2
2016-Feb-06 17:33N 37°55' E 023°39'1211.6
2016-Feb-06 16:34N 37°48' E 023°28'4 1.5
2016-Feb-06 14:13N 37°45' E 023°25'811.5
2016-Feb-06 13:30N 37°36' E 023°26'14 5.8
2016-Feb-06 11:07N 37°23' E 023°29'23 6.4
2016-Feb-06 07:34N 37°45' E 023°35'1110.8
2016-Feb-06 06:34N 37°55' E 023°40'1 1.4
2016-Feb-06 05:33N 37°56' E 023°41'0 0.0
2016-Feb-06 04:33N 37°56' E 023°41'0 0.0
2016-Feb-05 19:33N 37°56' E 023°41'0 0.0
2016-Feb-05 18:34N 37°56' E 023°41'0 0.0
2016-Feb-05 17:33N 37°56' E 023°41'0 0.0
2016-Feb-05 14:33N 37°56' E 023°41'0 0.0
2016-Feb-05 13:33N 37°56' E 023°41'0 0.0
2016-Feb-05 12:33N 37°56' E 023°41'0 0.0
2016-Feb-05 11:33N 37°56' E 023°41'0 0.0
2016-Feb-05 10:33N 37°56' E 023°41'0 0.0
2016-Feb-05 09:33N 37°56' E 023°41'0 0.0
2016-Feb-05 08:33N 37°56' E 023°41'0 0.0
2016-Feb-05 07:33N 37°56' E 023°41'0 0.0
2016-Feb-05 06:33N 37°56' E 023°41'0 0.0
2016-Feb-04 17:04N 37°56' E 023°41'0 0.0
2016-Feb-04 16:33N 37°56' E 023°41'0 0.0
2016-Feb-04 15:33N 37°56' E 023°41'0 0.0
2016-Feb-04 14:33N 37°56' E 023°41'0 0.0
2016-Feb-04 13:33N 37°56' E 023°41'0 0.0
2016-Feb-04 12:33N 37°56' E 023°41'0 0.0
2016-Feb-04 11:33N 37°56' E 023°41'0 0.0
2016-Feb-04 10:33N 37°56' E 023°41'0 0.0
2016-Feb-04 09:33N 37°56' E 023°41'0 0.0
2016-Feb-04 08:33N 37°56' E 023°41'0 0.0
2016-Feb-04 07:33N 37°56' E 023°41'0 0.0
2016-Feb-04 06:32N 37°56' E 023°41'0 0.0
2016-Feb-04 05:33N 37°56' E 023°41'0 0.0
2016-Feb-03 17:30N 37°56' E 023°41'1010.5
2016-Feb-03 16:33N 37°50' E 023°31'7 6.5
2016-Feb-03 15:28N 37°45' E 023°26'0 0.0
2016-Feb-03 14:11N 37°45' E 023°26'5 8.7
2016-Feb-03 13:33N 37°39' E 023°25'9 8.1
2016-Feb-03 12:23N 37°30' E 023°27'8 6.0
2016-Feb-03 11:05N 37°22' E 023°29'2 1.0
2016-Feb-03 09:31N 37°21' E 023°28'1110.9
2016-Feb-03 08:30N 37°32' E 023°33'1111.7
2016-Feb-03 07:33N 37°42' E 023°35'1111.5
2016-Feb-03 06:34N 37°53' E 023°40'3 3.0
2016-Feb-03 05:33N 37°56' E 023°41'0 0.0
2016-Feb-01 17:33N 37°56' E 023°41'1211.4
2016-Feb-01 16:33N 37°49' E 023°30'5 2.3
2016-Feb-01 14:10N 37°45' E 023°26'711.2
2016-Feb-01 13:33N 37°38' E 023°25'8 7.8
2016-Feb-01 12:31N 37°30' E 023°27'15 3.1
2016-Feb-01 07:33N 37°44' E 023°34'10 9.8
2016-Feb-01 06:33N 37°53' E 023°38'3 3.5
2016-Feb-01 05:33N 37°56' E 023°41'  
Track history (hours):
 
Tides and Currents Weather Stations Pressure Air Temp Water Temp Dewpoint Dewpoint Depression Visibility Wind Speed Wind Dir Waves Ship Positions

Platitera Tonouranon

Last reported at 2016-Feb-10 19:34 UTC. Time now 2016-Feb-11 04:21 UTC.
Position N 37°56' E 023°41'.

Length 55 m; draft 3.8 m.

Type: Ship (hazmat cat A). MMSI: 237038200.

Date/timePositionNaut miles runAvg speedWind from/ knotsBaromVisibWave heightAir tempDewpointWater temp
2016-Feb-10 19:34N 37°56' E 023°41'0 0.0
2016-Feb-10 18:34N 37°56' E 023°41'0 0.0
2016-Feb-10 16:33N 37°56' E 023°41'1 1.2
2016-Feb-10 15:33N 37°55' E 023°40'1111.1
2016-Feb-10 14:33N 37°48' E 023°30'4 3.6
2016-Feb-10 13:18N 37°45' E 023°26'4 2.0
2016-Feb-10 11:33N 37°41' E 023°25'1111.1
2016-Feb-10 10:33N 37°30' E 023°27'0 0.1
2016-Feb-10 09:21N 37°30' E 023°27'2 2.6
2016-Feb-10 08:32N 37°32' E 023°25'1111.6
2016-Feb-10 07:33N 37°42' E 023°32'1211.7
2016-Feb-10 06:33N 37°52' E 023°38'4 4.4
2016-Feb-10 05:33N 37°56' E 023°41'0 0.0
2016-Feb-10 04:33N 37°56' E 023°41'0 0.0
2016-Feb-09 19:33N 37°56' E 023°41'0 0.0
2016-Feb-09 18:34N 37°56' E 023°41'0 0.0
2016-Feb-09 17:34N 37°56' E 023°41'10 9.9
2016-Feb-09 16:34N 37°49' E 023°32'7 2.8
2016-Feb-09 14:04N 37°45' E 023°26'611.5
2016-Feb-09 13:33N 37°39' E 023°25'9 7.0
2016-Feb-09 12:16N 37°30' E 023°27'3 4.4
2016-Feb-09 11:33N 37°28' E 023°30'13 3.1
2016-Feb-09 07:27N 37°40' E 023°37'1111.8
2016-Feb-09 06:33N 37°50' E 023°39'6 6.0
2016-Feb-09 05:33N 37°56' E 023°41'0 0.0
2016-Feb-09 04:33N 37°56' E 023°41'0 0.0
2016-Feb-08 19:23N 37°56' E 023°41'0 0.0
2016-Feb-08 18:33N 37°56' E 023°41'0 0.0
2016-Feb-08 17:33N 37°56' E 023°41'1110.6
2016-Feb-08 16:33N 37°49' E 023°31'6 2.5
2016-Feb-08 14:07N 37°45' E 023°26'611.5
2016-Feb-08 13:33N 37°38' E 023°25'11 1.9
2016-Feb-08 07:33N 37°41' E 023°39'1211.8
2016-Feb-08 06:33N 37°53' E 023°40'3 3.0
2016-Feb-08 05:33N 37°56' E 023°41'0 0.0
2016-Feb-08 04:33N 37°56' E 023°41'0 0.0
2016-Feb-07 19:33N 37°56' E 023°41'0 0.0
2016-Feb-07 18:33N 37°56' E 023°41'0 0.3
2016-Feb-07 17:33N 37°56' E 023°41'1211.7
2016-Feb-07 16:33N 37°49' E 023°29'5 2.2
2016-Feb-07 14:14N 37°45' E 023°26'811.5
2016-Feb-07 13:33N 37°37' E 023°26'7 5.4
2016-Feb-07 12:14N 37°30' E 023°27'7 7.5
2016-Feb-07 11:16N 37°23' E 023°29'20 5.2
2016-Feb-07 07:31N 37°41' E 023°39'1111.9
2016-Feb-07 06:33N 37°52' E 023°40'4 3.9
2016-Feb-07 05:33N 37°56' E 023°41'2 0.2
2016-Feb-06 17:33N 37°55' E 023°39'1211.6
2016-Feb-06 16:34N 37°48' E 023°28'4 1.5
2016-Feb-06 14:13N 37°45' E 023°25'811.5
2016-Feb-06 13:30N 37°36' E 023°26'14 5.8
2016-Feb-06 11:07N 37°23' E 023°29'23 6.4
2016-Feb-06 07:34N 37°45' E 023°35'1110.8
2016-Feb-06 06:34N 37°55' E 023°40'1 1.4
2016-Feb-06 05:33N 37°56' E 023°41'0 0.0
2016-Feb-06 04:33N 37°56' E 023°41'0 0.0
2016-Feb-05 19:33N 37°56' E 023°41'0 0.0
2016-Feb-05 18:34N 37°56' E 023°41'0 0.0
2016-Feb-05 17:33N 37°56' E 023°41'0 0.0
2016-Feb-05 14:33N 37°56' E 023°41'0 0.0
2016-Feb-05 13:33N 37°56' E 023°41'0 0.0
2016-Feb-05 12:33N 37°56' E 023°41'0 0.0
2016-Feb-05 11:33N 37°56' E 023°41'0 0.0
2016-Feb-05 10:33N 37°56' E 023°41'0 0.0
2016-Feb-05 09:33N 37°56' E 023°41'0 0.0
2016-Feb-05 08:33N 37°56' E 023°41'0 0.0
2016-Feb-05 07:33N 37°56' E 023°41'0 0.0
2016-Feb-05 06:33N 37°56' E 023°41'0 0.0
2016-Feb-04 17:04N 37°56' E 023°41'0 0.0
2016-Feb-04 16:33N 37°56' E 023°41'0 0.0
2016-Feb-04 15:33N 37°56' E 023°41'0 0.0
2016-Feb-04 14:33N 37°56' E 023°41'0 0.0
2016-Feb-04 13:33N 37°56' E 023°41'0 0.0
2016-Feb-04 12:33N 37°56' E 023°41'0 0.0
2016-Feb-04 11:33N 37°56' E 023°41'0 0.0
2016-Feb-04 10:33N 37°56' E 023°41'0 0.0
2016-Feb-04 09:33N 37°56' E 023°41'0 0.0
2016-Feb-04 08:33N 37°56' E 023°41'0 0.0
2016-Feb-04 07:33N 37°56' E 023°41'0 0.0
2016-Feb-04 06:32N 37°56' E 023°41'0 0.0
2016-Feb-04 05:33N 37°56' E 023°41'0 0.0
2016-Feb-03 17:30N 37°56' E 023°41'1010.5
2016-Feb-03 16:33N 37°50' E 023°31'7 6.5
2016-Feb-03 15:28N 37°45' E 023°26'0 0.0
2016-Feb-03 14:11N 37°45' E 023°26'5 8.7
2016-Feb-03 13:33N 37°39' E 023°25'9 8.1
2016-Feb-03 12:23N 37°30' E 023°27'8 6.0
2016-Feb-03 11:05N 37°22' E 023°29'2 1.0
2016-Feb-03 09:31N 37°21' E 023°28'1110.9
2016-Feb-03 08:30N 37°32' E 023°33'1111.7
2016-Feb-03 07:33N 37°42' E 023°35'1111.5
2016-Feb-03 06:34N 37°53' E 023°40'3 3.0
2016-Feb-03 05:33N 37°56' E 023°41'0 0.0
2016-Feb-01 17:33N 37°56' E 023°41'1211.4
2016-Feb-01 16:33N 37°49' E 023°30'5 2.3
2016-Feb-01 14:10N 37°45' E 023°26'711.2
2016-Feb-01 13:33N 37°38' E 023°25'8 7.8
2016-Feb-01 12:31N 37°30' E 023°27'15 3.1
2016-Feb-01 07:33N 37°44' E 023°34'10 9.8
2016-Feb-01 06:33N 37°53' E 023°38'3 3.5
2016-Feb-01 05:33N 37°56' E 023°41'  

Dump ship's entire track history